sensor_id;sensor_type;location;lat;lon;timestamp;P1;durP1;ratioP1;P2;durP2;ratioP2
6438;SDS011;3252;52.540;13.290;2023-05-24T00:01:57;18.90;;;4.47;;
6438;SDS011;3252;52.540;13.290;2023-05-24T00:03:59;18.17;;;3.43;;
6438;SDS011;3252;52.540;13.290;2023-05-24T00:06:01;16.30;;;3.77;;
6438;SDS011;3252;52.540;13.290;2023-05-24T00:08:06;16.40;;;4.03;;
6438;SDS011;3252;52.540;13.290;2023-05-24T00:10:10;14.43;;;3.90;;
6438;SDS011;3252;52.540;13.290;2023-05-24T00:12:12;16.87;;;3.90;;
6438;SDS011;3252;52.540;13.290;2023-05-24T00:14:15;14.13;;;3.53;;
6438;SDS011;3252;52.540;13.290;2023-05-24T00:16:17;20.93;;;4.27;;
6438;SDS011;3252;52.540;13.290;2023-05-24T00:18:20;15.17;;;3.53;;
6438;SDS011;3252;52.540;13.290;2023-05-24T00:20:23;18.33;;;4.13;;
6438;SDS011;3252;52.540;13.290;2023-05-24T00:22:25;18.50;;;3.80;;
6438;SDS011;3252;52.540;13.290;2023-05-24T00:24:27;17.30;;;3.80;;
6438;SDS011;3252;52.540;13.290;2023-05-24T00:26:30;17.00;;;4.13;;
6438;SDS011;3252;52.540;13.290;2023-05-24T00:28:33;16.50;;;3.87;;
6438;SDS011;3252;52.540;13.290;2023-05-24T00:30:36;19.83;;;4.40;;
6438;SDS011;3252;52.540;13.290;2023-05-24T00:32:38;20.03;;;4.00;;
6438;SDS011;3252;52.540;13.290;2023-05-24T00:34:41;16.17;;;4.10;;
6438;SDS011;3252;52.540;13.290;2023-05-24T00:36:45;14.77;;;3.40;;
6438;SDS011;3252;52.540;13.290;2023-05-24T00:38:49;16.63;;;4.07;;
6438;SDS011;3252;52.540;13.290;2023-05-24T00:40:52;14.87;;;3.80;;
6438;SDS011;3252;52.540;13.290;2023-05-24T00:42:57;18.40;;;4.00;;
6438;SDS011;3252;52.540;13.290;2023-05-24T00:44:59;21.80;;;4.30;;
6438;SDS011;3252;52.540;13.290;2023-05-24T00:47:01;16.83;;;3.53;;
6438;SDS011;3252;52.540;13.290;2023-05-24T00:49:03;16.13;;;4.17;;
6438;SDS011;3252;52.540;13.290;2023-05-24T00:51:06;14.67;;;4.03;;
6438;SDS011;3252;52.540;13.290;2023-05-24T00:53:08;20.27;;;3.93;;
6438;SDS011;3252;52.540;13.290;2023-05-24T00:55:12;17.63;;;3.67;;
6438;SDS011;3252;52.540;13.290;2023-05-24T00:57:15;18.50;;;3.97;;
6438;SDS011;3252;52.540;13.290;2023-05-24T00:59:19;18.87;;;4.00;;
6438;SDS011;3252;52.540;13.290;2023-05-24T01:01:22;19.93;;;3.80;;
6438;SDS011;3252;52.540;13.290;2023-05-24T01:03:26;16.07;;;3.87;;
6438;SDS011;3252;52.540;13.290;2023-05-24T01:05:29;17.83;;;4.00;;
6438;SDS011;3252;52.540;13.290;2023-05-24T01:07:32;22.03;;;4.47;;
6438;SDS011;3252;52.540;13.290;2023-05-24T01:09:49;16.97;;;3.97;;
6438;SDS011;3252;52.540;13.290;2023-05-24T01:12:05;20.53;;;4.53;;
6438;SDS011;3252;52.540;13.290;2023-05-24T01:14:17;18.47;;;3.73;;
6438;SDS011;3252;52.540;13.290;2023-05-24T01:16:30;17.40;;;3.43;;
6438;SDS011;3252;52.540;13.290;2023-05-24T01:18:37;14.13;;;3.43;;
6438;SDS011;3252;52.540;13.290;2023-05-24T01:20:43;20.27;;;4.20;;
6438;SDS011;3252;52.540;13.290;2023-05-24T01:23:04;17.97;;;4.00;;
6438;SDS011;3252;52.540;13.290;2023-05-24T01:25:16;14.47;;;3.40;;
6438;SDS011;3252;52.540;13.290;2023-05-24T01:27:24;18.33;;;4.43;;
6438;SDS011;3252;52.540;13.290;2023-05-24T01:29:31;20.43;;;4.30;;
6438;SDS011;3252;52.540;13.290;2023-05-24T01:31:34;21.73;;;3.93;;
6438;SDS011;3252;52.540;13.290;2023-05-24T01:33:39;17.70;;;3.80;;
6438;SDS011;3252;52.540;13.290;2023-05-24T01:35:43;18.40;;;3.67;;
6438;SDS011;3252;52.540;13.290;2023-05-24T01:37:46;14.60;;;3.50;;
6438;SDS011;3252;52.540;13.290;2023-05-24T01:39:48;13.47;;;3.63;;
6438;SDS011;3252;52.540;13.290;2023-05-24T01:41:53;20.13;;;3.90;;
6438;SDS011;3252;52.540;13.290;2023-05-24T01:46:36;14.60;;;3.70;;
6438;SDS011;3252;52.540;13.290;2023-05-24T01:48:41;15.47;;;3.63;;
6438;SDS011;3252;52.540;13.290;2023-05-24T01:50:51;16.20;;;3.87;;
6438;SDS011;3252;52.540;13.290;2023-05-24T01:52:56;17.70;;;4.00;;
6438;SDS011;3252;52.540;13.290;2023-05-24T01:55:02;17.63;;;3.17;;
6438;SDS011;3252;52.540;13.290;2023-05-24T01:57:06;18.93;;;4.40;;
6438;SDS011;3252;52.540;13.290;2023-05-24T01:59:09;19.20;;;4.43;;
6438;SDS011;3252;52.540;13.290;2023-05-24T02:01:14;16.60;;;3.73;;
6438;SDS011;3252;52.540;13.290;2023-05-24T02:03:17;21.87;;;4.03;;
6438;SDS011;3252;52.540;13.290;2023-05-24T02:05:20;15.27;;;4.10;;
6438;SDS011;3252;52.540;13.290;2023-05-24T02:07:22;19.80;;;4.37;;
6438;SDS011;3252;52.540;13.290;2023-05-24T02:09:25;19.30;;;3.87;;
6438;SDS011;3252;52.540;13.290;2023-05-24T02:11:27;20.60;;;4.23;;
6438;SDS011;3252;52.540;13.290;2023-05-24T02:13:29;17.40;;;4.07;;
6438;SDS011;3252;52.540;13.290;2023-05-24T02:15:31;22.70;;;4.57;;
6438;SDS011;3252;52.540;13.290;2023-05-24T02:17:39;14.07;;;4.40;;
6438;SDS011;3252;52.540;13.290;2023-05-24T02:19:42;14.20;;;3.47;;
6438;SDS011;3252;52.540;13.290;2023-05-24T02:21:44;16.60;;;3.70;;
6438;SDS011;3252;52.540;13.290;2023-05-24T02:23:46;19.60;;;4.33;;
6438;SDS011;3252;52.540;13.290;2023-05-24T02:25:48;16.47;;;3.57;;
6438;SDS011;3252;52.540;13.290;2023-05-24T02:27:51;18.17;;;3.80;;
6438;SDS011;3252;52.540;13.290;2023-05-24T02:29:53;20.50;;;4.43;;
6438;SDS011;3252;52.540;13.290;2023-05-24T02:31:55;15.03;;;3.97;;
6438;SDS011;3252;52.540;13.290;2023-05-24T02:33:58;12.53;;;3.47;;
6438;SDS011;3252;52.540;13.290;2023-05-24T02:36:01;17.03;;;3.93;;
6438;SDS011;3252;52.540;13.290;2023-05-24T02:38:03;18.83;;;3.70;;
6438;SDS011;3252;52.540;13.290;2023-05-24T02:40:06;17.27;;;4.40;;
6438;SDS011;3252;52.540;13.290;2023-05-24T02:42:09;18.13;;;3.80;;
6438;SDS011;3252;52.540;13.290;2023-05-24T02:44:11;18.57;;;4.07;;
6438;SDS011;3252;52.540;13.290;2023-05-24T02:46:13;20.13;;;4.00;;
6438;SDS011;3252;52.540;13.290;2023-05-24T02:48:16;21.47;;;4.37;;
6438;SDS011;3252;52.540;13.290;2023-05-24T02:50:19;26.37;;;4.87;;
6438;SDS011;3252;52.540;13.290;2023-05-24T02:52:21;19.10;;;4.50;;
6438;SDS011;3252;52.540;13.290;2023-05-24T02:54:24;17.33;;;4.13;;
6438;SDS011;3252;52.540;13.290;2023-05-24T02:56:26;19.40;;;4.37;;
6438;SDS011;3252;52.540;13.290;2023-05-24T02:58:29;26.43;;;4.83;;
6438;SDS011;3252;52.540;13.290;2023-05-24T03:00:32;15.93;;;4.33;;
6438;SDS011;3252;52.540;13.290;2023-05-24T03:02:35;21.80;;;4.70;;
6438;SDS011;3252;52.540;13.290;2023-05-24T03:04:41;18.03;;;4.20;;
6438;SDS011;3252;52.540;13.290;2023-05-24T03:06:47;18.10;;;4.30;;
6438;SDS011;3252;52.540;13.290;2023-05-24T03:08:50;16.53;;;4.20;;
6438;SDS011;3252;52.540;13.290;2023-05-24T03:10:53;19.73;;;4.60;;
6438;SDS011;3252;52.540;13.290;2023-05-24T03:12:55;20.80;;;4.70;;
6438;SDS011;3252;52.540;13.290;2023-05-24T03:14:57;24.30;;;4.80;;
6438;SDS011;3252;52.540;13.290;2023-05-24T03:16:59;19.70;;;4.27;;
6438;SDS011;3252;52.540;13.290;2023-05-24T03:19:02;18.17;;;4.50;;
6438;SDS011;3252;52.540;13.290;2023-05-24T03:21:05;23.17;;;4.63;;
6438;SDS011;3252;52.540;13.290;2023-05-24T03:23:09;18.10;;;4.23;;
6438;SDS011;3252;52.540;13.290;2023-05-24T03:25:11;21.50;;;4.73;;
6438;SDS011;3252;52.540;13.290;2023-05-24T03:27:13;24.33;;;5.00;;
6438;SDS011;3252;52.540;13.290;2023-05-24T03:29:16;21.60;;;4.40;;
6438;SDS011;3252;52.540;13.290;2023-05-24T03:31:19;20.97;;;4.47;;
6438;SDS011;3252;52.540;13.290;2023-05-24T03:33:24;23.97;;;4.50;;
6438;SDS011;3252;52.540;13.290;2023-05-24T03:35:26;19.40;;;4.23;;
6438;SDS011;3252;52.540;13.290;2023-05-24T03:37:29;22.20;;;4.63;;
6438;SDS011;3252;52.540;13.290;2023-05-24T03:39:33;21.43;;;4.67;;
6438;SDS011;3252;52.540;13.290;2023-05-24T03:41:51;16.13;;;3.67;;
6438;SDS011;3252;52.540;13.290;2023-05-24T03:43:53;18.47;;;4.43;;
6438;SDS011;3252;52.540;13.290;2023-05-24T03:45:56;22.17;;;4.90;;
6438;SDS011;3252;52.540;13.290;2023-05-24T03:47:59;17.40;;;4.13;;
6438;SDS011;3252;52.540;13.290;2023-05-24T03:50:01;20.07;;;4.33;;
6438;SDS011;3252;52.540;13.290;2023-05-24T03:52:04;18.60;;;4.60;;
6438;SDS011;3252;52.540;13.290;2023-05-24T03:54:06;14.33;;;3.77;;
6438;SDS011;3252;52.540;13.290;2023-05-24T03:56:10;20.60;;;4.57;;
6438;SDS011;3252;52.540;13.290;2023-05-24T03:58:12;21.57;;;4.77;;
6438;SDS011;3252;52.540;13.290;2023-05-24T04:00:14;19.20;;;5.07;;
6438;SDS011;3252;52.540;13.290;2023-05-24T04:02:21;16.97;;;4.20;;
6438;SDS011;3252;52.540;13.290;2023-05-24T04:04:23;17.57;;;3.93;;
6438;SDS011;3252;52.540;13.290;2023-05-24T04:06:25;17.20;;;3.90;;
6438;SDS011;3252;52.540;13.290;2023-05-24T04:08:29;17.87;;;4.43;;
6438;SDS011;3252;52.540;13.290;2023-05-24T04:10:32;16.60;;;3.93;;
6438;SDS011;3252;52.540;13.290;2023-05-24T04:12:35;15.73;;;4.00;;
6438;SDS011;3252;52.540;13.290;2023-05-24T04:14:40;21.70;;;4.53;;
6438;SDS011;3252;52.540;13.290;2023-05-24T04:16:42;22.23;;;4.07;;
6438;SDS011;3252;52.540;13.290;2023-05-24T04:18:45;25.43;;;4.63;;
6438;SDS011;3252;52.540;13.290;2023-05-24T04:20:47;20.07;;;4.83;;
6438;SDS011;3252;52.540;13.290;2023-05-24T04:22:49;22.63;;;4.73;;
6438;SDS011;3252;52.540;13.290;2023-05-24T04:24:51;21.13;;;4.10;;
6438;SDS011;3252;52.540;13.290;2023-05-24T04:26:53;21.83;;;4.30;;
6438;SDS011;3252;52.540;13.290;2023-05-24T04:29:00;19.73;;;4.60;;
6438;SDS011;3252;52.540;13.290;2023-05-24T04:31:03;20.93;;;5.03;;
6438;SDS011;3252;52.540;13.290;2023-05-24T04:33:06;19.77;;;5.90;;
6438;SDS011;3252;52.540;13.290;2023-05-24T04:35:08;17.67;;;5.73;;
6438;SDS011;3252;52.540;13.290;2023-05-24T04:37:11;25.33;;;7.67;;
6438;SDS011;3252;52.540;13.290;2023-05-24T04:39:19;21.37;;;5.17;;
6438;SDS011;3252;52.540;13.290;2023-05-24T04:41:21;21.00;;;4.67;;
6438;SDS011;3252;52.540;13.290;2023-05-24T04:43:23;24.53;;;5.23;;
6438;SDS011;3252;52.540;13.290;2023-05-24T04:45:28;19.83;;;5.17;;
6438;SDS011;3252;52.540;13.290;2023-05-24T04:47:32;18.03;;;4.70;;
6438;SDS011;3252;52.540;13.290;2023-05-24T04:49:34;18.93;;;4.70;;
6438;SDS011;3252;52.540;13.290;2023-05-24T04:51:37;17.80;;;4.77;;
6438;SDS011;3252;52.540;13.290;2023-05-24T04:53:39;20.87;;;5.10;;
6438;SDS011;3252;52.540;13.290;2023-05-24T04:55:42;25.30;;;5.43;;
6438;SDS011;3252;52.540;13.290;2023-05-24T04:57:44;21.97;;;5.50;;
6438;SDS011;3252;52.540;13.290;2023-05-24T04:59:47;24.87;;;5.57;;
6438;SDS011;3252;52.540;13.290;2023-05-24T05:01:51;25.73;;;9.77;;
6438;SDS011;3252;52.540;13.290;2023-05-24T05:03:53;24.47;;;5.93;;
6438;SDS011;3252;52.540;13.290;2023-05-24T05:05:55;25.23;;;5.83;;
6438;SDS011;3252;52.540;13.290;2023-05-24T05:07:57;25.17;;;5.33;;
6438;SDS011;3252;52.540;13.290;2023-05-24T05:09:59;25.77;;;5.83;;
6438;SDS011;3252;52.540;13.290;2023-05-24T05:12:02;24.97;;;5.70;;
6438;SDS011;3252;52.540;13.290;2023-05-24T05:14:05;28.13;;;6.20;;
6438;SDS011;3252;52.540;13.290;2023-05-24T05:16:08;26.10;;;5.80;;
6438;SDS011;3252;52.540;13.290;2023-05-24T05:18:12;22.23;;;5.90;;
6438;SDS011;3252;52.540;13.290;2023-05-24T05:20:15;28.40;;;5.73;;
6438;SDS011;3252;52.540;13.290;2023-05-24T05:22:17;30.00;;;5.97;;
6438;SDS011;3252;52.540;13.290;2023-05-24T05:24:19;27.53;;;6.30;;
6438;SDS011;3252;52.540;13.290;2023-05-24T05:26:22;27.93;;;6.13;;
6438;SDS011;3252;52.540;13.290;2023-05-24T05:28:24;29.23;;;6.07;;
6438;SDS011;3252;52.540;13.290;2023-05-24T05:30:26;26.20;;;5.73;;
6438;SDS011;3252;52.540;13.290;2023-05-24T05:32:28;27.57;;;5.93;;
6438;SDS011;3252;52.540;13.290;2023-05-24T05:34:32;32.87;;;6.60;;
6438;SDS011;3252;52.540;13.290;2023-05-24T05:36:34;29.50;;;6.63;;
6438;SDS011;3252;52.540;13.290;2023-05-24T05:38:39;24.93;;;5.97;;
6438;SDS011;3252;52.540;13.290;2023-05-24T05:40:42;27.13;;;6.13;;
6438;SDS011;3252;52.540;13.290;2023-05-24T05:42:44;31.40;;;6.37;;
6438;SDS011;3252;52.540;13.290;2023-05-24T05:44:46;26.07;;;6.00;;
6438;SDS011;3252;52.540;13.290;2023-05-24T05:46:48;27.87;;;6.53;;
6438;SDS011;3252;52.540;13.290;2023-05-24T05:48:51;24.77;;;5.90;;
6438;SDS011;3252;52.540;13.290;2023-05-24T05:50:54;26.10;;;6.37;;
6438;SDS011;3252;52.540;13.290;2023-05-24T05:52:56;26.47;;;6.63;;
6438;SDS011;3252;52.540;13.290;2023-05-24T05:54:59;27.63;;;7.20;;
6438;SDS011;3252;52.540;13.290;2023-05-24T05:57:01;26.90;;;6.20;;
6438;SDS011;3252;52.540;13.290;2023-05-24T05:59:03;29.37;;;6.53;;
6438;SDS011;3252;52.540;13.290;2023-05-24T06:01:05;27.73;;;6.93;;
6438;SDS011;3252;52.540;13.290;2023-05-24T06:03:07;25.17;;;6.17;;
6438;SDS011;3252;52.540;13.290;2023-05-24T06:05:09;35.87;;;7.13;;
6438;SDS011;3252;52.540;13.290;2023-05-24T06:07:13;30.17;;;6.50;;
6438;SDS011;3252;52.540;13.290;2023-05-24T06:09:15;33.13;;;7.17;;
6438;SDS011;3252;52.540;13.290;2023-05-24T06:11:17;27.23;;;6.30;;
6438;SDS011;3252;52.540;13.290;2023-05-24T06:13:20;30.07;;;6.60;;
6438;SDS011;3252;52.540;13.290;2023-05-24T06:15:22;33.43;;;6.60;;
6438;SDS011;3252;52.540;13.290;2023-05-24T06:17:24;27.80;;;7.13;;
6438;SDS011;3252;52.540;13.290;2023-05-24T06:19:28;32.03;;;6.80;;
6438;SDS011;3252;52.540;13.290;2023-05-24T06:21:30;28.90;;;7.00;;
6438;SDS011;3252;52.540;13.290;2023-05-24T06:23:33;29.93;;;6.73;;
6438;SDS011;3252;52.540;13.290;2023-05-24T06:25:35;29.10;;;7.00;;
6438;SDS011;3252;52.540;13.290;2023-05-24T06:27:38;27.17;;;7.20;;
6438;SDS011;3252;52.540;13.290;2023-05-24T06:29:40;27.30;;;7.10;;
6438;SDS011;3252;52.540;13.290;2023-05-24T06:31:42;25.97;;;6.60;;
6438;SDS011;3252;52.540;13.290;2023-05-24T06:33:46;31.03;;;6.70;;
6438;SDS011;3252;52.540;13.290;2023-05-24T06:35:48;25.50;;;6.47;;
6438;SDS011;3252;52.540;13.290;2023-05-24T06:37:51;33.37;;;7.03;;
6438;SDS011;3252;52.540;13.290;2023-05-24T06:39:54;29.93;;;6.50;;
6438;SDS011;3252;52.540;13.290;2023-05-24T06:41:56;37.23;;;7.50;;
6438;SDS011;3252;52.540;13.290;2023-05-24T06:43:58;30.80;;;7.10;;
6438;SDS011;3252;52.540;13.290;2023-05-24T06:46:01;33.27;;;7.03;;
6438;SDS011;3252;52.540;13.290;2023-05-24T06:48:03;31.60;;;6.77;;
6438;SDS011;3252;52.540;13.290;2023-05-24T06:50:06;30.83;;;6.67;;
6438;SDS011;3252;52.540;13.290;2023-05-24T06:52:09;29.80;;;7.13;;
6438;SDS011;3252;52.540;13.290;2023-05-24T06:54:13;27.57;;;6.57;;
6438;SDS011;3252;52.540;13.290;2023-05-24T06:56:16;29.03;;;7.20;;
6438;SDS011;3252;52.540;13.290;2023-05-24T06:58:19;28.63;;;6.50;;
6438;SDS011;3252;52.540;13.290;2023-05-24T07:00:21;31.00;;;6.90;;
6438;SDS011;3252;52.540;13.290;2023-05-24T07:02:23;28.03;;;6.30;;
6438;SDS011;3252;52.540;13.290;2023-05-24T07:04:27;28.07;;;7.20;;
6438;SDS011;3252;52.540;13.290;2023-05-24T07:06:30;28.10;;;7.13;;
6438;SDS011;3252;52.540;13.290;2023-05-24T07:08:32;33.30;;;6.53;;
6438;SDS011;3252;52.540;13.290;2023-05-24T07:10:35;32.63;;;6.63;;
6438;SDS011;3252;52.540;13.290;2023-05-24T07:12:38;29.90;;;7.13;;
6438;SDS011;3252;52.540;13.290;2023-05-24T07:14:41;31.63;;;7.13;;
6438;SDS011;3252;52.540;13.290;2023-05-24T07:16:43;32.53;;;7.27;;
6438;SDS011;3252;52.540;13.290;2023-05-24T07:18:45;26.40;;;6.20;;
6438;SDS011;3252;52.540;13.290;2023-05-24T07:20:48;34.60;;;6.83;;
6438;SDS011;3252;52.540;13.290;2023-05-24T07:22:50;37.60;;;6.83;;
6438;SDS011;3252;52.540;13.290;2023-05-24T07:24:52;30.63;;;7.50;;
6438;SDS011;3252;52.540;13.290;2023-05-24T07:26:55;27.97;;;6.57;;
6438;SDS011;3252;52.540;13.290;2023-05-24T07:28:59;27.07;;;6.93;;
6438;SDS011;3252;52.540;13.290;2023-05-24T07:31:01;30.13;;;6.60;;
6438;SDS011;3252;52.540;13.290;2023-05-24T07:33:03;36.87;;;7.47;;
6438;SDS011;3252;52.540;13.290;2023-05-24T07:35:06;30.37;;;7.20;;
6438;SDS011;3252;52.540;13.290;2023-05-24T07:37:08;31.53;;;7.63;;
6438;SDS011;3252;52.540;13.290;2023-05-24T07:39:11;28.70;;;7.07;;
6438;SDS011;3252;52.540;13.290;2023-05-24T07:41:15;32.13;;;7.50;;
6438;SDS011;3252;52.540;13.290;2023-05-24T07:43:17;31.23;;;7.47;;
6438;SDS011;3252;52.540;13.290;2023-05-24T07:45:21;29.17;;;7.53;;
6438;SDS011;3252;52.540;13.290;2023-05-24T07:47:23;27.47;;;7.30;;
6438;SDS011;3252;52.540;13.290;2023-05-24T07:49:25;27.37;;;6.97;;
6438;SDS011;3252;52.540;13.290;2023-05-24T07:51:27;29.13;;;6.83;;
6438;SDS011;3252;52.540;13.290;2023-05-24T07:53:29;26.33;;;6.87;;
6438;SDS011;3252;52.540;13.290;2023-05-24T07:55:33;27.23;;;7.43;;
6438;SDS011;3252;52.540;13.290;2023-05-24T07:57:35;32.13;;;6.77;;
6438;SDS011;3252;52.540;13.290;2023-05-24T07:59:37;35.60;;;7.50;;
6438;SDS011;3252;52.540;13.290;2023-05-24T08:01:41;26.70;;;7.17;;
6438;SDS011;3252;52.540;13.290;2023-05-24T08:03:43;32.70;;;7.87;;
6438;SDS011;3252;52.540;13.290;2023-05-24T08:05:46;33.30;;;7.87;;
6438;SDS011;3252;52.540;13.290;2023-05-24T08:07:48;29.27;;;7.13;;
6438;SDS011;3252;52.540;13.290;2023-05-24T08:09:50;27.33;;;7.00;;
6438;SDS011;3252;52.540;13.290;2023-05-24T08:11:53;35.00;;;7.03;;
6438;SDS011;3252;52.540;13.290;2023-05-24T08:13:55;29.20;;;6.50;;
6438;SDS011;3252;52.540;13.290;2023-05-24T08:15:57;28.17;;;5.90;;
6438;SDS011;3252;52.540;13.290;2023-05-24T08:18:00;27.53;;;6.50;;
6438;SDS011;3252;52.540;13.290;2023-05-24T08:20:02;26.23;;;6.37;;
6438;SDS011;3252;52.540;13.290;2023-05-24T08:22:08;29.23;;;7.43;;
6438;SDS011;3252;52.540;13.290;2023-05-24T08:24:11;24.30;;;7.40;;
6438;SDS011;3252;52.540;13.290;2023-05-24T08:26:13;33.97;;;7.73;;
6438;SDS011;3252;52.540;13.290;2023-05-24T08:28:18;29.00;;;7.00;;
6438;SDS011;3252;52.540;13.290;2023-05-24T08:30:20;26.00;;;6.87;;
6438;SDS011;3252;52.540;13.290;2023-05-24T08:32:22;31.47;;;7.37;;
6438;SDS011;3252;52.540;13.290;2023-05-24T08:34:26;1999.90;;;999.90;;
6438;SDS011;3252;52.540;13.290;2023-05-24T08:36:29;999.97;;;738.33;;
6438;SDS011;3252;52.540;13.290;2023-05-24T08:38:32;899.10;;;617.47;;
6438;SDS011;3252;52.540;13.290;2023-05-24T08:40:34;1627.93;;;975.97;;
6438;SDS011;3252;52.540;13.290;2023-05-24T08:42:36;257.67;;;159.63;;
6438;SDS011;3252;52.540;13.290;2023-05-24T08:44:40;35.10;;;12.33;;
6438;SDS011;3252;52.540;13.290;2023-05-24T08:46:47;28.30;;;6.53;;
6438;SDS011;3252;52.540;13.290;2023-05-24T08:48:50;26.50;;;6.73;;
6438;SDS011;3252;52.540;13.290;2023-05-24T08:50:54;28.53;;;7.43;;
6438;SDS011;3252;52.540;13.290;2023-05-24T08:52:58;28.97;;;5.63;;
6438;SDS011;3252;52.540;13.290;2023-05-24T08:55:02;25.57;;;5.90;;
6438;SDS011;3252;52.540;13.290;2023-05-24T08:57:05;24.80;;;6.30;;
6438;SDS011;3252;52.540;13.290;2023-05-24T08:59:10;26.23;;;6.60;;
6438;SDS011;3252;52.540;13.290;2023-05-24T09:01:14;23.63;;;6.10;;
6438;SDS011;3252;52.540;13.290;2023-05-24T09:03:17;23.67;;;5.73;;
6438;SDS011;3252;52.540;13.290;2023-05-24T09:05:20;21.70;;;6.03;;
6438;SDS011;3252;52.540;13.290;2023-05-24T09:07:24;32.33;;;6.17;;
6438;SDS011;3252;52.540;13.290;2023-05-24T09:09:27;28.43;;;8.30;;
6438;SDS011;3252;52.540;13.290;2023-05-24T09:11:30;25.37;;;6.97;;
6438;SDS011;3252;52.540;13.290;2023-05-24T09:13:34;24.63;;;6.97;;
6438;SDS011;3252;52.540;13.290;2023-05-24T09:15:36;24.33;;;6.50;;
6438;SDS011;3252;52.540;13.290;2023-05-24T09:17:38;23.57;;;5.60;;
6438;SDS011;3252;52.540;13.290;2023-05-24T09:19:42;23.13;;;6.03;;
6438;SDS011;3252;52.540;13.290;2023-05-24T09:21:45;19.70;;;5.20;;
6438;SDS011;3252;52.540;13.290;2023-05-24T09:23:51;16.53;;;4.93;;
6438;SDS011;3252;52.540;13.290;2023-05-24T09:25:54;21.40;;;5.23;;
6438;SDS011;3252;52.540;13.290;2023-05-24T09:27:56;19.53;;;4.70;;
6438;SDS011;3252;52.540;13.290;2023-05-24T09:29:58;21.70;;;5.20;;
6438;SDS011;3252;52.540;13.290;2023-05-24T09:32:01;16.87;;;5.00;;
6438;SDS011;3252;52.540;13.290;2023-05-24T09:34:05;21.93;;;5.60;;
6438;SDS011;3252;52.540;13.290;2023-05-24T09:36:11;23.17;;;5.80;;
6438;SDS011;3252;52.540;13.290;2023-05-24T09:38:17;26.50;;;6.23;;
6438;SDS011;3252;52.540;13.290;2023-05-24T09:40:22;20.10;;;5.33;;
6438;SDS011;3252;52.540;13.290;2023-05-24T09:42:25;21.87;;;5.80;;
6438;SDS011;3252;52.540;13.290;2023-05-24T09:44:29;19.57;;;5.50;;
6438;SDS011;3252;52.540;13.290;2023-05-24T09:46:35;21.57;;;5.27;;
6438;SDS011;3252;52.540;13.290;2023-05-24T09:48:38;26.43;;;6.27;;
6438;SDS011;3252;52.540;13.290;2023-05-24T09:50:40;18.47;;;5.60;;
6438;SDS011;3252;52.540;13.290;2023-05-24T09:52:44;22.30;;;5.40;;
6438;SDS011;3252;52.540;13.290;2023-05-24T09:54:47;24.77;;;5.83;;
6438;SDS011;3252;52.540;13.290;2023-05-24T09:56:50;22.87;;;5.33;;
6438;SDS011;3252;52.540;13.290;2023-05-24T09:58:53;25.20;;;6.00;;
6438;SDS011;3252;52.540;13.290;2023-05-24T10:01:02;19.27;;;5.10;;
6438;SDS011;3252;52.540;13.290;2023-05-24T10:03:06;19.20;;;5.97;;
6438;SDS011;3252;52.540;13.290;2023-05-24T10:05:10;27.27;;;10.67;;
6438;SDS011;3252;52.540;13.290;2023-05-24T10:07:13;24.10;;;6.20;;
6438;SDS011;3252;52.540;13.290;2023-05-24T10:09:17;17.63;;;4.53;;
6438;SDS011;3252;52.540;13.290;2023-05-24T10:11:19;41.03;;;6.73;;
6438;SDS011;3252;52.540;13.290;2023-05-24T10:13:23;20.63;;;5.50;;
6438;SDS011;3252;52.540;13.290;2023-05-24T10:15:28;17.57;;;4.50;;
6438;SDS011;3252;52.540;13.290;2023-05-24T10:17:30;17.47;;;5.30;;
6438;SDS011;3252;52.540;13.290;2023-05-24T10:19:33;13.87;;;3.73;;
6438;SDS011;3252;52.540;13.290;2023-05-24T10:21:36;14.70;;;4.30;;
6438;SDS011;3252;52.540;13.290;2023-05-24T10:23:42;31.70;;;17.37;;
6438;SDS011;3252;52.540;13.290;2023-05-24T10:25:53;18.83;;;5.47;;
6438;SDS011;3252;52.540;13.290;2023-05-24T10:28:01;22.67;;;5.80;;
6438;SDS011;3252;52.540;13.290;2023-05-24T10:30:10;18.47;;;5.80;;
6438;SDS011;3252;52.540;13.290;2023-05-24T10:32:17;14.13;;;5.03;;
6438;SDS011;3252;52.540;13.290;2023-05-24T10:34:22;17.77;;;4.50;;
6438;SDS011;3252;52.540;13.290;2023-05-24T10:36:24;14.60;;;4.17;;
6438;SDS011;3252;52.540;13.290;2023-05-24T10:38:27;14.83;;;4.57;;
6438;SDS011;3252;52.540;13.290;2023-05-24T10:40:32;19.47;;;4.30;;
6438;SDS011;3252;52.540;13.290;2023-05-24T10:42:35;18.43;;;4.33;;
6438;SDS011;3252;52.540;13.290;2023-05-24T10:44:39;18.77;;;4.33;;
6438;SDS011;3252;52.540;13.290;2023-05-24T10:49:07;11.50;;;3.83;;
6438;SDS011;3252;52.540;13.290;2023-05-24T10:51:33;14.53;;;4.10;;
6438;SDS011;3252;52.540;13.290;2023-05-24T10:53:37;11.23;;;3.27;;
6438;SDS011;3252;52.540;13.290;2023-05-24T10:55:52;19.70;;;4.10;;
6438;SDS011;3252;52.540;13.290;2023-05-24T10:57:55;18.43;;;4.20;;
6438;SDS011;3252;52.540;13.290;2023-05-24T10:59:58;18.23;;;3.50;;
6438;SDS011;3252;52.540;13.290;2023-05-24T11:02:34;14.70;;;3.70;;
6438;SDS011;3252;52.540;13.290;2023-05-24T11:04:36;12.53;;;3.80;;
6438;SDS011;3252;52.540;13.290;2023-05-24T11:06:45;14.47;;;3.77;;
6438;SDS011;3252;52.540;13.290;2023-05-24T11:08:49;13.43;;;3.40;;
6438;SDS011;3252;52.540;13.290;2023-05-24T11:13:11;15.33;;;3.67;;
6438;SDS011;3252;52.540;13.290;2023-05-24T11:15:14;14.10;;;3.73;;
6438;SDS011;3252;52.540;13.290;2023-05-24T11:17:24;11.53;;;3.70;;
6438;SDS011;3252;52.540;13.290;2023-05-24T11:19:31;9.47;;;3.10;;
6438;SDS011;3252;52.540;13.290;2023-05-24T11:21:34;11.77;;;3.00;;
6438;SDS011;3252;52.540;13.290;2023-05-24T11:23:37;10.97;;;3.73;;
6438;SDS011;3252;52.540;13.290;2023-05-24T11:25:40;12.17;;;3.77;;
6438;SDS011;3252;52.540;13.290;2023-05-24T11:27:43;10.43;;;3.63;;
6438;SDS011;3252;52.540;13.290;2023-05-24T11:29:46;13.87;;;3.87;;
6438;SDS011;3252;52.540;13.290;2023-05-24T11:31:49;12.67;;;3.77;;
6438;SDS011;3252;52.540;13.290;2023-05-24T11:33:53;10.37;;;3.07;;
6438;SDS011;3252;52.540;13.290;2023-05-24T11:35:57;10.00;;;3.40;;
6438;SDS011;3252;52.540;13.290;2023-05-24T11:37:59;14.37;;;3.30;;
6438;SDS011;3252;52.540;13.290;2023-05-24T11:40:02;13.07;;;3.27;;
6438;SDS011;3252;52.540;13.290;2023-05-24T11:42:06;13.43;;;3.40;;
6438;SDS011;3252;52.540;13.290;2023-05-24T11:44:09;17.67;;;3.20;;
6438;SDS011;3252;52.540;13.290;2023-05-24T11:46:12;10.63;;;3.40;;
6438;SDS011;3252;52.540;13.290;2023-05-24T11:48:15;20.40;;;3.93;;
6438;SDS011;3252;52.540;13.290;2023-05-24T11:50:22;14.40;;;3.37;;
6438;SDS011;3252;52.540;13.290;2023-05-24T11:52:27;25.60;;;10.20;;
6438;SDS011;3252;52.540;13.290;2023-05-24T11:54:29;24.37;;;5.80;;
6438;SDS011;3252;52.540;13.290;2023-05-24T11:56:32;26.37;;;8.00;;
6438;SDS011;3252;52.540;13.290;2023-05-24T11:58:36;20.47;;;6.80;;
6438;SDS011;3252;52.540;13.290;2023-05-24T12:00:45;14.53;;;4.80;;
6438;SDS011;3252;52.540;13.290;2023-05-24T12:02:49;13.83;;;4.43;;
6438;SDS011;3252;52.540;13.290;2023-05-24T12:04:51;18.47;;;3.80;;
6438;SDS011;3252;52.540;13.290;2023-05-24T12:06:54;17.63;;;4.30;;
6438;SDS011;3252;52.540;13.290;2023-05-24T12:08:58;16.33;;;4.07;;
6438;SDS011;3252;52.540;13.290;2023-05-24T12:11:02;23.57;;;4.00;;
6438;SDS011;3252;52.540;13.290;2023-05-24T12:13:04;30.37;;;4.50;;
6438;SDS011;3252;52.540;13.290;2023-05-24T12:15:08;16.77;;;3.77;;
6438;SDS011;3252;52.540;13.290;2023-05-24T12:17:13;11.80;;;3.67;;
6438;SDS011;3252;52.540;13.290;2023-05-24T12:19:16;11.03;;;3.40;;
6438;SDS011;3252;52.540;13.290;2023-05-24T12:21:19;20.87;;;3.93;;
6438;SDS011;3252;52.540;13.290;2023-05-24T12:23:22;11.60;;;4.03;;
6438;SDS011;3252;52.540;13.290;2023-05-24T12:25:28;19.10;;;3.97;;
6438;SDS011;3252;52.540;13.290;2023-05-24T12:27:30;12.03;;;3.97;;
6438;SDS011;3252;52.540;13.290;2023-05-24T12:29:34;13.93;;;3.60;;
6438;SDS011;3252;52.540;13.290;2023-05-24T12:31:40;11.83;;;3.43;;
6438;SDS011;3252;52.540;13.290;2023-05-24T12:33:44;11.93;;;3.60;;